Time;durP1;ratioP1;P1;durP2;ratioP2;P2;SDS_P1;SDS_P2;PMS_P1;PMS_P2;Temp;Humidity;BMP_temperature;BMP_pressure;BME280_temperature;BME280_humidity;BME280_pressure;Samples;Min_cycle;Max_cycle;Signal;HPM_P1;HPM_P2
2022/05/31 00:02:21;;;;;;;9.15;3.90;;;;;;;-141.50;100.00;63355.56;5088634;28;20071;-82
2022/05/31 00:04:48;;;;;;;6.90;3.90;;;;;;;-141.50;100.00;63355.56;5077939;28;20100;-84
2022/05/31 00:07:15;;;;;;;7.13;3.95;;;;;;;-141.50;100.00;63355.56;5083681;28;20401;-81
2022/05/31 00:09:42;;;;;;;9.02;4.20;;;;;;;-141.50;100.00;63355.56;5095999;28;20048;-83
2022/05/31 00:12:09;;;;;;;6.97;4.65;;;;;;;-141.50;100.00;63355.56;5093630;28;20055;-83
2022/05/31 00:14:36;;;;;;;11.70;5.20;;;;;;;-141.50;100.00;63355.56;5094591;28;20063;-84
2022/05/31 00:17:04;;;;;;;6.30;4.53;;;;;;;-141.50;100.00;63355.56;5103209;28;20035;-81
2022/05/31 00:19:35;;;;;;;9.15;4.80;;;;;;;-141.50;100.00;63355.56;5112841;28;20032;-83
2022/05/31 00:22:16;;;;;;;8.85;4.60;;;;;;;-141.50;100.00;63355.56;5099453;28;20075;-83
2022/05/31 00:24:42;;;;;;;8.05;4.60;;;;;;;-141.50;100.00;63355.56;5097111;28;20047;-85
2022/05/31 00:27:12;;;;;;;8.57;4.90;;;;;;;-141.50;100.00;63355.56;5097939;28;20139;-84
2022/05/31 00:29:38;;;;;;;8.88;4.32;;;;;;;-141.50;100.00;63355.56;5108212;28;20048;-81
2022/05/31 00:32:08;;;;;;;8.02;4.05;;;;;;;-141.50;100.00;63355.56;5088387;28;20075;-86
2022/05/31 00:34:38;;;;;;;5.88;3.70;;;;;;;-141.50;100.00;63355.56;5082582;28;20052;-83
2022/05/31 00:37:10;;;;;;;10.90;4.05;;;;;;;-141.50;100.00;63355.56;5080345;28;20048;-83
2022/05/31 00:39:37;;;;;;;7.90;3.70;;;;;;;-141.50;100.00;63355.56;5102180;28;20044;-83
2022/05/31 00:42:05;;;;;;;5.03;3.65;;;;;;;-141.50;100.00;63355.56;5082188;28;20064;-82
2022/05/31 00:44:36;;;;;;;6.15;3.38;;;;;;;-141.50;100.00;63355.56;5104483;28;20048;-82
2022/05/31 00:47:25;;;;;;;6.22;3.70;;;;;;;-141.50;100.00;63355.56;5079062;28;20048;-84
2022/05/31 00:50:13;;;;;;;5.55;3.83;;;;;;;-141.50;100.00;63355.56;5079306;28;20075;-84
2022/05/31 00:52:45;;;;;;;6.75;3.75;;;;;;;-141.50;100.00;63355.56;5074889;28;20075;-84
2022/05/31 00:55:21;;;;;;;5.40;4.05;;;;;;;-141.50;100.00;63355.56;5092723;28;20044;-83
2022/05/31 00:58:11;;;;;;;8.55;4.93;;;;;;;-141.50;100.00;63355.56;5074645;28;20478;-84
2022/05/31 01:00:40;;;;;;;9.77;4.35;;;;;;;-141.50;100.00;63355.56;5093483;28;20056;-84
2022/05/31 01:03:08;;;;;;;7.45;4.32;;;;;;;-141.50;100.00;63355.56;5075366;28;20440;-82
2022/05/31 01:05:35;;;;;;;7.35;4.22;;;;;;;-141.50;100.00;63355.56;5095301;28;20078;-84
2022/05/31 01:08:05;;;;;;;7.10;4.05;;;;;;;-141.50;100.00;63355.56;5076623;28;20616;-84
2022/05/31 01:10:34;;;;;;;6.05;3.95;;;;;;;-141.50;100.00;63355.56;5073601;28;20714;-84
2022/05/31 01:13:02;;;;;;;10.85;3.80;;;;;;;-141.50;100.00;63355.56;5092016;28;20048;-83
2022/05/31 01:15:32;;;;;;;6.25;3.60;;;;;;;-141.50;100.00;63355.56;5075203;28;20460;-84
2022/05/31 01:17:58;;;;;;;6.18;3.88;;;;;;;-141.50;100.00;63355.56;5075543;28;20538;-84
2022/05/31 01:20:25;;;;;;;8.90;4.25;;;;;;;-141.50;100.00;63355.56;5104184;28;20040;-81
2022/05/31 01:22:57;;;;;;;8.60;4.97;;;;;;;-141.50;100.00;63355.56;5112055;28;20056;-82
2022/05/31 01:25:42;;;;;;;6.68;4.60;;;;;;;-141.50;100.00;63355.56;5100565;28;20090;-85
2022/05/31 01:28:13;;;;;;;8.43;5.10;;;;;;;-141.50;100.00;63355.56;5100732;28;20055;-85
2022/05/31 01:30:55;;;;;;;9.68;5.70;;;;;;;-141.50;100.00;63355.56;5095692;28;20048;-83
2022/05/31 01:33:34;;;;;;;8.50;5.90;;;;;;;-141.50;100.00;63355.56;5073812;28;20477;-82
2022/05/31 01:36:12;;;;;;;11.50;5.72;;;;;;;-141.50;100.00;63355.56;5091414;28;20055;-83
2022/05/31 01:38:55;;;;;;;9.15;5.32;;;;;;;-141.50;100.00;63355.56;5074738;28;20502;-83
2022/05/31 01:41:46;;;;;;;8.80;5.45;;;;;;;-141.50;100.00;63355.56;5103155;28;20051;-82
2022/05/31 01:44:18;;;;;;;7.50;5.10;;;;;;;-141.50;100.00;63355.56;5111623;28;20055;-81
2022/05/31 01:46:51;;;;;;;10.68;4.90;;;;;;;-141.50;100.00;63355.56;5111235;28;20051;-81
2022/05/31 01:49:18;;;;;;;6.50;4.63;;;;;;;-141.50;100.00;63355.56;5093522;28;20043;-83
2022/05/31 01:51:45;;;;;;;8.90;4.18;;;;;;;-141.50;100.00;63355.56;5110752;28;20048;-81
2022/05/31 01:54:15;;;;;;;6.32;4.07;;;;;;;-141.50;100.00;63355.56;5092598;28;20071;-82
2022/05/31 01:56:50;;;;;;;9.23;4.68;;;;;;;-141.50;100.00;63355.56;5093173;28;20054;-81
2022/05/31 01:59:20;;;;;;;5.25;4.07;;;;;;;-141.50;100.00;63355.56;5105333;28;20052;-85
2022/05/31 02:01:52;;;;;;;7.88;4.43;;;;;;;-141.50;100.00;63355.56;5099532;28;20044;-85
2022/05/31 02:04:19;;;;;;;8.30;4.20;;;;;;;-141.50;100.00;63355.56;5085314;28;20052;-85
2022/05/31 02:06:45;;;;;;;5.95;4.05;;;;;;;-141.50;100.00;63355.56;5093672;28;20040;-81
2022/05/31 02:09:14;;;;;;;7.45;4.50;;;;;;;-141.50;100.00;63355.56;5091929;28;20044;-83
2022/05/31 02:11:41;;;;;;;5.68;3.92;;;;;;;-141.50;100.00;63355.56;5080645;28;20052;-83
2022/05/31 02:14:09;;;;;;;8.77;5.15;;;;;;;-141.50;100.00;63355.56;5089990;28;20105;-84
2022/05/31 02:16:36;;;;;;;8.05;5.78;;;;;;;-141.50;100.00;63355.56;5090724;28;20482;-83
2022/05/31 02:19:25;;;;;;;10.23;6.10;;;;;;;-141.50;100.00;63355.56;5073934;28;20044;-83
2022/05/31 02:21:54;;;;;;;11.88;6.55;;;;;;;-141.50;100.00;63355.56;5074520;28;20055;-82
2022/05/31 02:24:23;;;;;;;8.95;6.18;;;;;;;-141.50;100.00;63355.56;5094739;28;20502;-82
2022/05/31 02:26:50;;;;;;;11.75;6.63;;;;;;;-141.50;100.00;63355.56;5095236;28;20055;-82
2022/05/31 02:29:20;;;;;;;9.20;5.88;;;;;;;-141.50;100.00;63355.56;5086129;28;20048;-83
2022/05/31 02:31:47;;;;;;;8.52;5.43;;;;;;;-141.50;100.00;63355.56;5079169;28;20044;-84
2022/05/31 02:34:20;;;;;;;7.93;5.30;;;;;;;-141.50;100.00;63355.56;5083467;28;20048;-81
2022/05/31 02:36:47;;;;;;;8.23;5.22;;;;;;;-141.50;100.00;63355.56;5096728;28;20135;-82
2022/05/31 02:39:14;;;;;;;9.13;5.68;;;;;;;-141.50;100.00;63355.56;5078446;28;20048;-82
2022/05/31 02:41:41;;;;;;;7.60;5.18;;;;;;;-141.50;100.00;63355.56;5097584;28;20051;-84
2022/05/31 02:44:08;;;;;;;10.10;5.20;;;;;;;-141.50;100.00;63355.56;5082017;28;20086;-81
2022/05/31 02:46:35;;;;;;;8.02;5.35;;;;;;;-141.50;100.00;63355.56;5102545;28;20273;-84
2022/05/31 02:49:06;;;;;;;11.52;5.93;;;;;;;-141.50;100.00;63355.56;5083938;28;20063;-85
2022/05/31 02:51:38;;;;;;;8.10;5.38;;;;;;;-141.50;100.00;63355.56;5100372;28;20105;-83
2022/05/31 02:54:05;;;;;;;7.75;5.00;;;;;;;-141.50;100.00;63355.56;5077391;28;20575;-83
2022/05/31 02:56:35;;;;;;;7.30;4.80;;;;;;;-141.50;100.00;63355.56;5108614;28;20036;-81
2022/05/31 02:59:05;;;;;;;10.10;5.40;;;;;;;-141.50;100.00;63355.56;5093750;28;20059;-84
2022/05/31 03:01:34;;;;;;;8.55;5.40;;;;;;;-141.50;100.00;63355.56;5085748;28;20051;-83
2022/05/31 03:04:02;;;;;;;7.75;5.43;;;;;;;-141.50;100.00;63355.56;5103905;28;20090;-84
2022/05/31 03:06:29;;;;;;;8.38;5.53;;;;;;;-141.50;100.00;63355.56;5095354;28;20131;-84
2022/05/31 03:08:58;;;;;;;12.85;4.88;;;;;;;-141.50;100.00;63355.56;5077807;28;20079;-83
2022/05/31 03:11:52;;;;;;;9.00;5.20;;;;;;;-141.50;100.00;63355.56;5079549;28;20056;-82
2022/05/31 03:14:44;;;;;;;7.00;4.95;;;;;;;-141.50;100.00;63355.56;5097289;28;20105;-82
2022/05/31 03:17:18;;;;;;;9.65;5.22;;;;;;;-141.50;100.00;63355.56;5101958;28;20044;-83
2022/05/31 03:19:50;;;;;;;7.88;5.03;;;;;;;-141.50;100.00;63355.56;5101058;28;20074;-82
2022/05/31 03:22:33;;;;;;;10.88;5.60;;;;;;;-141.50;100.00;63355.56;5097907;28;20043;-82
2022/05/31 03:25:25;;;;;;;10.57;5.60;;;;;;;-141.50;100.00;63355.56;5100227;28;20051;-82
2022/05/31 03:27:54;;;;;;;8.07;5.38;;;;;;;-141.50;100.00;63355.56;5088487;28;20040;-83
2022/05/31 03:30:21;;;;;;;8.35;5.55;;;;;;;-141.50;100.00;63355.56;5115258;28;20048;-80
2022/05/31 03:32:52;;;;;;;7.80;5.22;;;;;;;-141.50;100.00;63355.56;5105235;28;20447;-82
2022/05/31 03:35:19;;;;;;;10.32;5.25;;;;;;;-141.50;100.00;63355.56;5094790;28;20152;-83
2022/05/31 03:37:45;;;;;;;10.27;5.80;;;;;;;-141.50;100.00;63355.56;5076989;28;20147;-82
2022/05/31 03:40:56;;;;;;;10.13;5.47;;;;;;;-141.50;100.00;63355.56;5076543;28;20044;-83
2022/05/31 03:43:03;;;;;;;7.65;5.35;;;;;;;-141.50;100.00;63355.56;5094112;28;20394;-83
2022/05/31 03:45:38;;;;;;;10.38;5.63;;;;;;;-141.50;100.00;63355.56;5080861;28;20058;-81
2022/05/31 03:48:05;;;;;;;;;;;;;;;-141.50;100.00;63355.56;5112900;28;20052;-81
2022/05/31 03:50:33;;;;;;;8.85;5.35;;;;;;;-141.50;100.00;63355.56;5100531;28;19920;-85
2022/05/31 03:53:00;;;;;;;8.02;4.95;;;;;;;-141.50;100.00;63355.56;5078328;28;20064;-85
2022/05/31 03:55:27;;;;;;;7.35;5.10;;;;;;;-141.50;100.00;63355.56;5097822;28;20502;-83
2022/05/31 03:57:53;;;;;;;7.60;5.25;;;;;;;-141.50;100.00;63355.56;5097612;28;20056;-83
2022/05/31 04:00:20;;;;;;;9.82;5.82;;;;;;;-141.50;100.00;63355.56;5094524;28;20060;-83
2022/05/31 04:02:47;;;;;;;10.50;5.95;;;;;;;-141.50;100.00;63355.56;5093931;28;20138;-86
2022/05/31 04:05:13;;;;;;;8.15;5.82;;;;;;;-141.50;100.00;63355.56;5093871;28;20072;-84
2022/05/31 04:07:40;;;;;;;8.77;5.43;;;;;;;-141.50;100.00;63355.56;5094393;28;20469;-86
2022/05/31 04:10:08;;;;;;;10.23;5.93;;;;;;;-141.50;100.00;63355.56;5105709;28;20092;-83
2022/05/31 04:12:38;;;;;;;9.10;5.43;;;;;;;-141.50;100.00;63355.56;5115515;28;20040;-82
2022/05/31 04:15:05;;;;;;;9.45;5.82;;;;;;;-141.50;100.00;63355.56;5098383;28;20044;-83
2022/05/31 04:17:32;;;;;;;9.13;5.88;;;;;;;-141.50;100.00;63355.56;5112567;28;20052;-82
2022/05/31 04:19:58;;;;;;;9.43;6.20;;;;;;;-141.50;100.00;63355.56;5106648;28;20070;-82
2022/05/31 04:22:25;;;;;;;9.52;6.60;;;;;;;-141.50;100.00;63355.56;5081294;28;20044;-83
2022/05/31 04:24:54;;;;;;;15.25;6.60;;;;;;;-141.50;100.00;63355.56;5079133;28;20048;-84
2022/05/31 04:27:21;;;;;;;11.40;7.15;;;;;;;-141.50;100.00;63355.56;5098431;28;20044;-84
2022/05/31 04:29:47;;;;;;;10.85;6.55;;;;;;;-141.50;100.00;63355.56;5096285;28;20076;-86
2022/05/31 04:32:17;;;;;;;10.70;6.82;;;;;;;-141.50;100.00;63355.56;5097953;28;20074;-83
2022/05/31 04:34:47;;;;;;;12.07;6.60;;;;;;;-141.50;100.00;63355.56;5098259;28;20048;-82
2022/05/31 04:37:14;;;;;;;10.35;6.97;;;;;;;-141.50;100.00;63355.56;5099664;28;20044;-81
2022/05/31 04:39:46;;;;;;;10.35;7.40;;;;;;;-141.50;100.00;63355.56;5102050;28;20052;-83
2022/05/31 04:42:19;;;;;;;11.90;7.82;;;;;;;-141.50;100.00;63355.56;5101290;28;20052;-83
2022/05/31 04:44:50;;;;;;;12.77;7.95;;;;;;;-141.50;100.00;63355.56;5081974;28;20047;-81
2022/05/31 04:47:20;;;;;;;13.10;8.37;;;;;;;-141.50;100.00;63355.56;5101922;28;20075;-81
2022/05/31 04:49:46;;;;;;;15.18;8.40;;;;;;;-141.50;100.00;63355.56;5099083;28;20052;-82
2022/05/31 04:52:13;;;;;;;17.67;9.25;;;;;;;-141.50;100.00;63355.56;5113487;28;20067;-81
2022/05/31 04:54:40;;;;;;;14.27;8.32;;;;;;;-141.50;100.00;63355.56;5103557;28;20078;-82
2022/05/31 04:57:07;;;;;;;14.13;9.02;;;;;;;-141.50;100.00;63355.56;5111569;28;20417;-84
2022/05/31 04:59:34;;;;;;;14.38;9.15;;;;;;;-141.50;100.00;63355.56;5113247;28;20093;-82
2022/05/31 05:02:01;;;;;;;16.02;8.88;;;;;;;-141.50;100.00;63355.56;5083151;28;20052;-84
2022/05/31 05:04:27;;;;;;;12.27;8.23;;;;;;;-141.50;100.00;63355.56;5084710;28;20048;-83
2022/05/31 05:06:54;;;;;;;13.27;9.05;;;;;;;-141.50;100.00;63355.56;5089153;28;20100;-81
2022/05/31 05:09:21;;;;;;;15.13;8.63;;;;;;;-141.50;100.00;63355.56;5114722;28;20122;-84
2022/05/31 05:11:50;;;;;;;12.55;8.30;;;;;;;-141.50;100.00;63355.56;5115201;28;20051;-83
2022/05/31 05:14:16;;;;;;;14.88;8.25;;;;;;;-141.50;100.00;63355.56;5114573;28;20088;-83
2022/05/31 05:16:43;;;;;;;13.65;7.93;;;;;;;-141.50;100.00;63355.56;5108578;28;20059;-83
2022/05/31 05:19:13;;;;;;;13.55;8.43;;;;;;;-141.50;100.00;63355.56;5115678;28;20048;-83
2022/05/31 05:21:39;;;;;;;15.85;8.73;;;;;;;-141.50;100.00;63355.56;5103623;28;20497;-85
2022/05/31 05:24:06;;;;;;;11.55;8.10;;;;;;;-141.50;100.00;63355.56;5077116;28;20122;-83
2022/05/31 05:26:33;;;;;;;14.45;8.05;;;;;;;-141.50;100.00;63355.56;5106376;28;20135;-85
2022/05/31 05:31:44;;;;;;;15.18;7.95;;;;;;;-141.50;100.00;63355.56;5100310;28;20073;-82
2022/05/31 05:34:11;;;;;;;9.65;7.05;;;;;;;-141.50;100.00;63355.56;5096331;28;20090;-81
2022/05/31 05:36:38;;;;;;;15.98;8.48;;;;;;;-141.50;100.00;63355.56;5102581;28;20087;-79
2022/05/31 05:39:10;;;;;;;11.75;7.38;;;;;;;-141.50;100.00;63355.56;5100188;28;20087;-79
2022/05/31 05:41:40;;;;;;;13.65;7.82;;;;;;;-141.50;100.00;63355.56;5079655;28;20188;-81
2022/05/31 05:44:07;;;;;;;11.95;8.25;;;;;;;-141.50;100.00;63355.56;5105741;28;20099;-82
2022/05/31 05:46:34;;;;;;;11.65;7.20;;;;;;;-141.50;100.00;63355.56;5111315;28;20089;-80
2022/05/31 05:49:01;;;;;;;11.75;7.35;;;;;;;-141.50;100.00;63355.56;5080679;28;20079;-81
2022/05/31 05:51:31;;;;;;;13.07;7.55;;;;;;;-141.50;100.00;63355.56;5079977;28;20082;-81
2022/05/31 05:53:58;;;;;;;10.88;6.93;;;;;;;-141.50;100.00;63355.56;5079853;28;20058;-79
2022/05/31 05:56:27;;;;;;;10.63;6.68;;;;;;;-141.50;100.00;63355.56;5100182;28;20267;-79
2022/05/31 05:58:57;;;;;;;10.05;6.88;;;;;;;-141.50;100.00;63355.56;5107273;28;20090;-83
2022/05/31 06:01:33;;;;;;;14.50;7.38;;;;;;;-141.50;100.00;63355.56;5106526;28;20059;-83
2022/05/31 06:04:31;;;;;;;11.47;7.30;;;;;;;-141.50;100.00;63355.56;5068289;28;20133;-82
2022/05/31 06:07:02;;;;;;;12.70;7.03;;;;;;;-141.50;100.00;63355.56;5083999;28;20082;-83
2022/05/31 06:09:33;;;;;;;14.05;8.85;;;;;;;-141.50;100.00;63355.56;5082715;28;20468;-80
2022/05/31 06:12:06;;;;;;;9.65;6.57;;;;;;;-141.50;100.00;63355.56;5108277;28;20043;-80
2022/05/31 06:14:59;;;;;;;9.38;5.72;;;;;;;-141.50;100.00;63355.56;5107593;28;20070;-81
2022/05/31 06:17:35;;;;;;;9.00;5.32;;;;;;;-141.50;100.00;63355.56;5100368;28;20048;-84
2022/05/31 06:20:05;;;;;;;9.27;6.20;;;;;;;-141.50;100.00;63355.56;5077493;28;20052;-82
2022/05/31 06:22:32;;;;;;;11.50;5.72;;;;;;;-141.50;100.00;63355.56;5094717;28;20684;-82
2022/05/31 06:24:58;;;;;;;8.38;4.90;;;;;;;-141.50;100.00;63355.56;5079104;28;20080;-86
2022/05/31 06:27:25;;;;;;;8.15;4.47;;;;;;;-141.50;100.00;63355.56;5097284;28;20125;-84
2022/05/31 06:29:52;;;;;;;7.32;4.47;;;;;;;-141.50;100.00;63355.56;5093603;28;20134;-83
2022/05/31 06:32:18;;;;;;;6.30;4.07;;;;;;;-141.50;100.00;63355.56;5094601;28;20090;-83
2022/05/31 06:34:45;;;;;;;6.75;4.13;;;;;;;-141.50;100.00;63355.56;5097617;28;20543;-83
2022/05/31 06:37:16;;;;;;;7.50;3.60;;;;;;;-141.50;100.00;63355.56;5093523;28;20105;-85
2022/05/31 06:39:46;;;;;;;9.88;4.15;;;;;;;-141.50;100.00;63355.56;5092733;28;20066;-84
2022/05/31 06:42:13;;;;;;;8.55;3.75;;;;;;;-141.50;100.00;63355.56;5074981;28;20076;-83
2022/05/31 06:44:42;;;;;;;7.28;3.70;;;;;;;-141.50;100.00;63355.56;5083411;28;20139;-85
2022/05/31 06:47:10;;;;;;;7.38;3.80;;;;;;;-141.50;100.00;63355.56;5081883;28;20117;-86
2022/05/31 06:49:37;;;;;;;8.18;4.03;;;;;;;-141.50;100.00;63355.56;5099773;28;20473;-85
2022/05/31 06:57:42;;;;;;;9.85;3.20;;;;;;;-141.50;100.00;63355.56;5091888;28;20478;-83
2022/05/31 07:00:12;;;;;;;7.97;3.40;;;;;;;-141.50;100.00;63355.56;5111404;28;20494;-82
2022/05/31 07:02:39;;;;;;;7.75;3.35;;;;;;;-141.50;100.00;63355.56;5101924;28;20533;-81
2022/05/31 07:05:06;;;;;;;4.18;3.20;;;;;;;-141.50;100.00;63355.56;5091431;28;20079;-83
2022/05/31 07:07:34;;;;;;;7.70;3.20;;;;;;;-141.50;100.00;63355.56;5077725;28;20048;-82
2022/05/31 07:10:00;;;;;;;5.70;3.30;;;;;;;-141.50;100.00;63355.56;5091513;28;20421;-82
2022/05/31 07:12:27;;;;;;;6.20;3.25;;;;;;;-141.50;100.00;63355.56;5091592;28;20129;-83
2022/05/31 07:14:54;;;;;;;7.18;3.05;;;;;;;-141.50;100.00;63355.56;5081482;28;20135;-83
2022/05/31 07:17:21;;;;;;;6.28;3.08;;;;;;;-141.50;100.00;63355.56;5073290;28;20079;-84
2022/05/31 07:19:47;;;;;;;8.98;3.00;;;;;;;-141.50;100.00;63355.56;5075335;28;20134;-85
2022/05/31 07:22:35;;;;;;;8.35;3.10;;;;;;;-141.50;100.00;63355.56;5062516;28;20104;-84
2022/05/31 07:25:02;;;;;;;5.47;2.90;;;;;;;-141.50;100.00;63355.56;5095042;28;20052;-86
2022/05/31 07:27:29;;;;;;;6.55;3.30;;;;;;;-141.50;100.00;63355.56;5100071;28;20044;-83
2022/05/31 07:29:55;;;;;;;11.18;3.40;;;;;;;-141.50;100.00;63355.56;5097974;28;20514;-84
2022/05/31 07:32:22;;;;;;;5.30;2.38;;;;;;;-141.50;100.00;63355.56;5093582;28;20056;-82
2022/05/31 07:35:09;;;;;;;6.07;2.05;;;;;;;-141.50;100.00;63355.56;5093007;28;20055;-84
2022/05/31 07:37:36;;;;;;;4.40;2.78;;;;;;;-141.50;100.00;63355.56;5094366;28;20047;-82
2022/05/31 07:40:04;;;;;;;4.30;2.60;;;;;;;-141.50;100.00;63355.56;5094648;28;20108;-84
2022/05/31 07:42:31;;;;;;;8.48;2.65;;;;;;;-141.50;100.00;63355.56;5093981;28;20082;-84
2022/05/31 07:44:58;;;;;;;3.83;2.10;;;;;;;-141.50;100.00;63355.56;5095359;28;20490;-81
2022/05/31 07:47:25;;;;;;;4.30;2.08;;;;;;;-141.50;100.00;63355.56;5095556;28;20048;-84
2022/05/31 07:49:51;;;;;;;4.65;1.80;;;;;;;-141.50;100.00;63355.56;5096461;28;20044;-83
2022/05/31 07:52:18;;;;;;;5.38;2.00;;;;;;;-141.50;100.00;63355.56;5095592;28;20048;-84
2022/05/31 07:54:47;;;;;;;5.85;1.90;;;;;;;-141.50;100.00;63355.56;5102687;28;20079;-83
2022/05/31 07:59:59;;;;;;;;;;;;;;;-141.50;100.00;63355.56;5097473;28;20040;-84
2022/05/31 08:02:26;;;;;;;7.25;2.00;;;;;;;-141.50;100.00;63355.56;5097975;28;19920;-83
2022/05/31 08:04:52;;;;;;;3.67;2.08;;;;;;;-141.50;100.00;63355.56;5102686;28;20245;-84
2022/05/31 08:07:19;;;;;;;4.43;2.17;;;;;;;-141.50;100.00;63355.56;5117251;28;20192;-80
2022/05/31 08:09:46;;;;;;;5.18;2.35;;;;;;;-141.50;100.00;63355.56;5119589;28;20040;-83
2022/05/31 08:12:13;;;;;;;4.15;1.90;;;;;;;-141.50;100.00;63355.56;5100490;28;20044;-82
2022/05/31 08:14:41;;;;;;;3.30;1.75;;;;;;;-141.50;100.00;63355.56;5115987;28;20055;-86
2022/05/31 08:17:10;;;;;;;5.80;1.75;;;;;;;-141.50;100.00;63355.56;5115444;28;20094;-85
2022/05/31 08:19:43;;;;;;;5.93;2.00;;;;;;;-141.50;100.00;63355.56;5101041;28;20131;-86
2022/05/31 08:22:10;;;;;;;5.32;1.83;;;;;;;-141.50;100.00;63355.56;5098774;28;20097;-83
2022/05/31 08:24:36;;;;;;;7.57;1.90;;;;;;;-141.50;100.00;63355.56;5110816;28;20054;-81
2022/05/31 08:27:11;;;;;;;4.90;1.80;;;;;;;-141.50;100.00;63355.56;5100285;28;20063;-87
2022/05/31 08:29:39;;;;;;;5.25;1.83;;;;;;;-141.50;100.00;63355.56;5114602;27;20059;-82
2022/05/31 08:32:06;;;;;;;4.10;1.25;;;;;;;-141.50;100.00;63355.56;5097608;27;20107;-79
2022/05/31 08:34:33;;;;;;;2.70;1.50;;;;;;;-141.50;100.00;63355.56;5113212;27;20028;-83
2022/05/31 08:37:00;;;;;;;3.67;1.40;;;;;;;-141.50;100.00;63355.56;5106187;28;20052;-85
2022/05/31 08:39:27;;;;;;;6.03;1.70;;;;;;;-141.50;100.00;63355.56;5096871;28;20139;-85
2022/05/31 08:42:15;;;;;;;3.15;1.38;;;;;;;-141.50;100.00;63355.56;5099125;28;20044;-85
2022/05/31 08:44:54;;;;;;;2.03;1.30;;;;;;;-141.50;100.00;63355.56;5071033;28;20056;-84
2022/05/31 08:47:31;;;;;;;4.32;1.48;;;;;;;-141.50;100.00;63355.56;5071353;28;20048;-84
2022/05/31 08:53:14;;;;;;;3.63;1.67;;;;;;;-141.50;100.00;63355.56;5073080;28;20053;-82
2022/05/31 08:58:55;;;;;;;5.57;1.38;;;;;;;-141.50;100.00;63355.56;5104309;28;20044;-82
2022/05/31 09:01:30;;;;;;;3.47;1.45;;;;;;;-141.50;100.00;63355.56;5093488;28;20132;-86
2022/05/31 09:04:17;;;;;;;2.97;1.20;;;;;;;-141.50;100.00;63355.56;5082716;28;20125;-84
2022/05/31 09:07:03;;;;;;;3.00;1.40;;;;;;;-141.50;100.00;63355.56;5074670;28;20058;-83
2022/05/31 09:09:38;;;;;;;4.33;1.40;;;;;;;-141.50;100.00;63355.56;5073186;28;20574;-82
2022/05/31 09:12:21;;;;;;;4.32;1.60;;;;;;;-141.50;100.00;63355.56;5075673;28;20045;-84
2022/05/31 09:14:50;;;;;;;6.93;1.10;;;;;;;-141.50;100.00;63355.56;5089002;28;20391;-84
2022/05/31 09:17:42;;;;;;;3.30;1.58;;;;;;;-141.50;100.00;63355.56;5095453;28;20105;-86
2022/05/31 09:20:17;;;;;;;3.60;1.63;;;;;;;-141.50;100.00;63355.56;5088636;28;20036;-83
2022/05/31 09:22:45;;;;;;;2.50;1.77;;;;;;;-141.50;100.00;63355.56;5095504;28;20474;-83
2022/05/31 09:25:13;;;;;;;3.55;1.50;;;;;;;-141.50;100.00;63355.56;5100104;28;20101;-82
2022/05/31 09:27:42;;;;;;;2.72;1.50;;;;;;;-141.50;100.00;63355.56;5097100;28;20051;-81
2022/05/31 09:30:41;;;;;;;4.70;1.60;;;;;;;-141.50;100.00;63355.56;5093803;28;20072;-84
2022/05/31 09:33:26;;;;;;;2.53;1.40;;;;;;;-141.50;100.00;63355.56;5091501;28;20125;-83
2022/05/31 09:36:09;;;;;;;3.67;1.47;;;;;;;-141.50;100.00;63355.56;5073949;28;20048;-83
2022/05/31 09:38:44;;;;;;;3.17;1.30;;;;;;;-141.50;100.00;63355.56;5085352;28;20048;-84
2022/05/31 09:41:14;;;;;;;;;;;;;;;-141.50;100.00;63355.56;5076334;28;20127;-84
2022/05/31 09:43:49;;;;;;;3.13;1.40;;;;;;;-141.50;100.00;63355.56;5090226;28;19978;-84
2022/05/31 09:46:54;;;;;;;2.85;1.33;;;;;;;-141.50;100.00;63355.56;5055619;28;20437;-83
2022/05/31 09:49:36;;;;;;;4.47;1.60;;;;;;;-141.50;100.00;63355.56;5090679;28;20075;-80
2022/05/31 09:52:42;;;;;;;4.85;1.30;;;;;;;-141.50;100.00;63355.56;5085463;28;20041;-79
2022/05/31 09:58:30;;;;;;;4.20;1.30;;;;;;;-141.50;100.00;63355.56;5089100;28;20048;-77
2022/05/31 10:01:22;;;;;;;4.43;1.48;;;;;;;-141.50;100.00;63355.56;5095252;28;20105;-77
2022/05/31 10:03:54;;;;;;;3.83;1.50;;;;;;;-141.50;100.00;63355.56;5091865;28;20055;-77
2022/05/31 10:06:24;;;;;;;5.18;1.75;;;;;;;-141.50;100.00;63355.56;5102841;28;20040;-80
2022/05/31 10:08:52;;;;;;;3.00;1.50;;;;;;;-141.50;100.00;63355.56;5096077;28;20093;-79
2022/05/31 10:11:30;;;;;;;3.28;1.50;;;;;;;-141.50;100.00;63355.56;5082983;28;20052;-80
2022/05/31 10:14:01;;;;;;;2.97;1.50;;;;;;;-141.50;100.00;63355.56;5094713;28;20047;-81
2022/05/31 10:16:34;;;;;;;3.78;1.40;;;;;;;-141.50;100.00;63355.56;5090715;28;20052;-80
2022/05/31 10:19:08;;;;;;;3.38;1.58;;;;;;;-141.50;100.00;63355.56;5089096;28;20095;-81
2022/05/31 10:21:37;;;;;;;4.57;1.27;;;;;;;-141.50;100.00;63355.56;5070087;28;20475;-77
2022/05/31 10:24:36;;;;;;;2.40;1.48;;;;;;;-141.50;100.00;63355.56;5071979;28;20685;-80
2022/05/31 10:27:11;;;;;;;3.40;1.70;;;;;;;-141.50;100.00;63355.56;5087035;28;20048;-80
2022/05/31 10:29:53;;;;;;;;;;;;;;;-141.50;100.00;63355.56;5091503;28;20112;-80
2022/05/31 10:32:33;;;;;;;2.42;1.52;;;;;;;-141.50;100.00;63355.56;5090334;28;19967;-80
2022/05/31 10:35:37;;;;;;;3.05;1.73;;;;;;;-141.50;100.00;63355.56;5099144;28;20066;-83
2022/05/31 10:38:30;;;;;;;4.47;1.63;;;;;;;-141.50;100.00;63355.56;5072809;28;20047;-85
2022/05/31 10:41:06;;;;;;;3.33;1.60;;;;;;;-141.50;100.00;63355.56;5081238;28;20055;-83
2022/05/31 10:43:35;;;;;;;2.78;1.35;;;;;;;-141.50;100.00;63355.56;5070744;28;20048;-82
2022/05/31 10:46:08;;;;;;;3.67;1.33;;;;;;;-141.50;100.00;63355.56;5078858;28;20123;-84
2022/05/31 10:48:48;;;;;;;4.40;1.50;;;;;;;-141.50;100.00;63355.56;5089627;28;20044;-83
2022/05/31 10:51:41;;;;;;;3.28;1.20;;;;;;;-141.50;100.00;63355.56;5092981;28;20048;-83
2022/05/31 10:54:08;;;;;;;3.90;1.30;;;;;;;-141.50;100.00;63355.56;5050540;28;20047;-85
2022/05/31 10:56:46;;;;;;;4.65;1.70;;;;;;;-141.50;100.00;63355.56;5097874;28;20047;-83
2022/05/31 10:59:21;;;;;;;3.90;1.20;;;;;;;-141.50;100.00;63355.56;5098489;28;20040;-84
2022/05/31 11:02:18;;;;;;;3.83;1.40;;;;;;;-141.50;100.00;63355.56;5102818;28;20048;-84
2022/05/31 11:05:07;;;;;;;4.32;1.38;;;;;;;-141.50;100.00;63355.56;5098549;28;20070;-85
2022/05/31 11:13:47;;;;;;;3.05;1.40;;;;;;;-141.50;100.00;63355.56;5104368;28;20044;-82
2022/05/31 11:16:22;;;;;;;4.75;1.38;;;;;;;-141.50;100.00;63355.56;5101651;28;20044;-81
2022/05/31 11:19:17;;;;;;;2.35;1.10;;;;;;;-141.50;100.00;63355.56;5096550;28;20054;-81
2022/05/31 11:22:12;;;;;;;2.80;1.50;;;;;;;-141.50;100.00;63355.56;5107187;28;20242;-81
2022/05/31 11:24:50;;;;;;;2.25;1.30;;;;;;;-141.50;100.00;63355.56;5106224;28;20056;-83
2022/05/31 11:27:48;;;;;;;3.15;1.60;;;;;;;-141.50;100.00;63355.56;5107863;28;20154;-85
2022/05/31 11:30:47;;;;;;;4.43;1.30;;;;;;;-141.50;100.00;63355.56;5080498;28;20052;-83
2022/05/31 11:33:33;;;;;;;2.83;1.50;;;;;;;-141.50;100.00;63355.56;5042103;28;20101;-86
2022/05/31 11:36:22;;;;;;;4.40;1.20;;;;;;;-141.50;100.00;63355.56;5107649;28;20078;-82
2022/05/31 11:38:55;;;;;;;2.80;1.30;;;;;;;-141.50;100.00;63355.56;5107675;28;20044;-81
2022/05/31 11:41:48;;;;;;;3.08;1.30;;;;;;;-141.50;100.00;63355.56;5111033;28;20052;-79
2022/05/31 11:44:37;;;;;;;2.97;1.15;;;;;;;-141.50;100.00;63355.56;5110163;28;20052;-83
2022/05/31 11:47:10;;;;;;;2.38;1.10;;;;;;;-141.50;100.00;63355.56;5109510;28;20434;-79
2022/05/31 11:49:48;;;;;;;1.25;1.05;;;;;;;-141.50;100.00;63355.56;5107451;28;20048;-82
2022/05/31 11:52:37;;;;;;;5.45;1.55;;;;;;;-141.50;100.00;63355.56;5110112;28;20057;-82
2022/05/31 11:55:28;;;;;;;1.88;1.20;;;;;;;-141.50;100.00;63355.56;5103863;28;20044;-83
2022/05/31 11:57:59;;;;;;;4.78;1.30;;;;;;;-141.50;100.00;63355.56;5097611;28;20044;-86
2022/05/31 12:00:32;;;;;;;2.83;1.17;;;;;;;-141.50;100.00;63355.56;5098966;28;20044;-85
2022/05/31 12:03:14;;;;;;;4.13;1.20;;;;;;;-141.50;100.00;63355.56;5099472;28;20129;-86